createdAt,value
2023-04-29T00:00:02.076Z,19.60
2023-04-29T00:02:31.874Z,16.93
2023-04-29T00:05:01.889Z,18.37
2023-04-29T00:07:29.641Z,17.33
2023-04-29T00:09:57.215Z,19.30
2023-04-29T00:12:24.830Z,18.30
2023-04-29T00:14:52.509Z,22.47
2023-04-29T00:17:20.132Z,21.97
2023-04-29T00:19:48.027Z,18.80
2023-04-29T00:22:17.559Z,22.67
2023-04-29T00:24:45.184Z,19.30
2023-04-29T00:27:12.888Z,18.47
2023-04-29T00:29:40.492Z,19.60
2023-04-29T00:32:08.186Z,23.20
2023-04-29T00:34:35.904Z,20.53
2023-04-29T00:37:04.077Z,20.83
2023-04-29T00:39:33.036Z,20.80
2023-04-29T00:42:01.327Z,22.27
2023-04-29T00:44:28.967Z,22.50
2023-04-29T00:46:56.560Z,24.20
2023-04-29T00:49:24.174Z,20.30
2023-04-29T00:51:52.018Z,20.80
2023-04-29T00:54:19.634Z,21.47
2023-04-29T00:56:48.990Z,19.23
2023-04-29T00:59:17.208Z,22.07
2023-04-29T01:01:45.665Z,19.30
2023-04-29T01:04:13.692Z,19.10
2023-04-29T01:06:57.158Z,22.93
2023-04-29T01:09:41.138Z,19.83
2023-04-29T01:12:21.490Z,19.73
2023-04-29T01:14:55.708Z,19.80
2023-04-29T01:17:26.744Z,17.10
2023-04-29T01:19:56.977Z,18.90
2023-04-29T01:22:24.781Z,18.47
2023-04-29T01:24:54.985Z,16.77
2023-04-29T01:27:30.591Z,17.07
2023-04-29T01:30:03.806Z,17.77
2023-04-29T01:32:42.812Z,16.13
2023-04-29T01:35:19.157Z,17.57
2023-04-29T01:37:57.860Z,18.17
2023-04-29T01:40:35.106Z,17.27
2023-04-29T01:43:04.389Z,18.23
2023-04-29T01:45:35.083Z,18.67
2023-04-29T01:48:04.750Z,16.47
2023-04-29T01:50:32.599Z,16.83
2023-04-29T01:53:00.411Z,18.20
2023-04-29T01:55:29.394Z,18.77
2023-04-29T01:57:57.017Z,17.83
2023-04-29T02:00:24.954Z,16.80
2023-04-29T02:02:52.613Z,17.97
2023-04-29T02:05:20.217Z,17.10
2023-04-29T02:07:47.797Z,17.30
2023-04-29T02:10:15.581Z,17.67
2023-04-29T02:12:44.650Z,16.87
2023-04-29T02:15:12.720Z,18.03
2023-04-29T02:17:41.072Z,17.60
2023-04-29T02:20:10.181Z,18.13
2023-04-29T02:22:37.793Z,17.10
2023-04-29T02:25:06.506Z,18.17
2023-04-29T02:27:34.066Z,17.60
2023-04-29T02:30:04.731Z,17.63
2023-04-29T02:32:32.556Z,17.80
2023-04-29T02:35:00.157Z,18.90
2023-04-29T02:37:28.576Z,21.30
2023-04-29T02:39:56.181Z,17.90
2023-04-29T02:42:23.802Z,18.33
2023-04-29T02:44:51.406Z,18.20
2023-04-29T02:47:20.378Z,17.57
2023-04-29T02:49:47.980Z,16.10
2023-04-29T02:52:16.902Z,16.63
2023-04-29T02:54:45.070Z,18.97
2023-04-29T02:57:12.775Z,17.00
2023-04-29T02:59:40.382Z,20.17
2023-04-29T03:02:08.035Z,16.60
2023-04-29T03:04:37.042Z,16.70
2023-04-29T03:07:05.367Z,15.93
2023-04-29T03:09:32.967Z,17.50
2023-04-29T03:12:01.039Z,15.97
2023-04-29T03:14:28.670Z,16.43
2023-04-29T03:16:56.935Z,17.60
2023-04-29T03:19:24.680Z,16.73
2023-04-29T03:21:54.175Z,16.37
2023-04-29T03:24:22.077Z,17.40
2023-04-29T03:26:49.691Z,16.30
2023-04-29T03:29:17.350Z,16.37
2023-04-29T03:31:45.134Z,17.37
2023-04-29T03:34:14.463Z,17.40
2023-04-29T03:36:42.035Z,18.20
2023-04-29T03:39:11.836Z,17.50
2023-04-29T03:41:39.681Z,18.33
2023-04-29T03:44:07.360Z,18.40
2023-04-29T03:46:35.088Z,18.63
2023-04-29T03:49:02.872Z,19.37
2023-04-29T03:51:30.717Z,18.73
2023-04-29T03:53:59.283Z,18.37
2023-04-29T03:56:28.301Z,19.33
2023-04-29T03:58:55.879Z,19.63
2023-04-29T04:01:23.539Z,18.57
2023-04-29T04:03:51.270Z,19.50
2023-04-29T04:06:19.177Z,19.27
2023-04-29T04:08:46.821Z,18.20
2023-04-29T04:11:15.186Z,18.57
2023-04-29T04:13:44.507Z,19.07
2023-04-29T04:16:12.503Z,20.40
2023-04-29T04:18:40.486Z,19.83
2023-04-29T04:21:08.590Z,19.20
2023-04-29T04:23:36.436Z,19.20
2023-04-29T04:26:04.050Z,19.30
2023-04-29T04:28:31.934Z,16.93
2023-04-29T04:31:00.975Z,20.73
2023-04-29T04:33:28.634Z,19.23
2023-04-29T04:35:56.886Z,19.50
2023-04-29T04:38:25.527Z,19.70
2023-04-29T04:40:53.211Z,19.37
2023-04-29T04:43:21.147Z,20.30
2023-04-29T04:45:48.807Z,19.43
2023-04-29T04:48:17.802Z,19.80
2023-04-29T04:50:45.457Z,20.30
2023-04-29T04:53:13.509Z,20.27
2023-04-29T04:55:41.147Z,19.33
2023-04-29T04:58:08.765Z,20.00
2023-04-29T05:00:36.353Z,18.03
2023-04-29T05:03:04.429Z,21.50
2023-04-29T05:05:34.465Z,19.17
2023-04-29T05:08:02.845Z,18.80
2023-04-29T05:10:30.551Z,18.47
2023-04-29T05:12:58.210Z,17.53
2023-04-29T05:15:27.434Z,18.37
2023-04-29T05:17:55.542Z,18.63
2023-04-29T05:20:23.250Z,18.10
2023-04-29T05:22:52.267Z,20.83
2023-04-29T05:25:20.400Z,19.23
2023-04-29T05:27:48.055Z,17.77
2023-04-29T05:30:15.904Z,17.67
2023-04-29T05:32:43.748Z,19.27
2023-04-29T05:35:13.771Z,19.10
2023-04-29T05:37:41.464Z,18.60
2023-04-29T05:40:11.519Z,17.47
2023-04-29T05:42:39.150Z,18.70
2023-04-29T05:45:07.910Z,17.77
2023-04-29T05:47:35.708Z,18.00
2023-04-29T05:50:03.358Z,18.87
2023-04-29T05:52:32.034Z,16.33
2023-04-29T05:55:01.037Z,16.80
2023-04-29T05:57:33.268Z,17.43
2023-04-29T06:00:01.209Z,15.80
2023-04-29T06:02:29.008Z,16.20
2023-04-29T06:04:57.513Z,15.70
2023-04-29T06:07:26.634Z,16.33
2023-04-29T06:09:56.877Z,15.83
2023-04-29T06:12:24.530Z,16.77
2023-04-29T06:14:53.967Z,16.67
2023-04-29T06:17:21.729Z,17.17
2023-04-29T06:19:49.374Z,14.90
2023-04-29T06:22:17.578Z,15.10
2023-04-29T06:24:45.287Z,16.50
2023-04-29T06:27:15.120Z,16.40
2023-04-29T06:29:43.135Z,17.63
2023-04-29T06:32:13.999Z,16.37
2023-04-29T06:34:41.743Z,15.00
2023-04-29T06:37:09.322Z,14.40
2023-04-29T06:39:36.966Z,21.67
2023-04-29T06:42:05.049Z,15.00
2023-04-29T06:44:32.689Z,14.77
2023-04-29T06:47:00.657Z,13.73
2023-04-29T06:49:29.742Z,14.27
2023-04-29T06:51:57.525Z,15.07
2023-04-29T06:54:25.609Z,15.03
2023-04-29T06:56:53.199Z,16.03
2023-04-29T06:59:21.211Z,14.90
2023-04-29T07:01:49.915Z,14.43
2023-04-29T07:04:17.777Z,15.27
2023-04-29T07:06:47.324Z,14.27
2023-04-29T07:09:15.417Z,14.27
2023-04-29T07:11:43.350Z,14.83
2023-04-29T07:14:10.996Z,14.43
2023-04-29T07:16:38.662Z,13.13
2023-04-29T07:19:06.297Z,12.57
2023-04-29T07:21:34.124Z,12.93
2023-04-29T07:24:04.958Z,13.20
2023-04-29T07:26:32.732Z,13.40
2023-04-29T07:29:00.353Z,13.03
2023-04-29T07:31:28.473Z,13.87
2023-04-29T07:33:57.194Z,13.23
2023-04-29T07:36:24.848Z,12.93
2023-04-29T07:38:53.218Z,13.70
2023-04-29T07:41:22.355Z,13.70
2023-04-29T07:43:49.961Z,13.70
2023-04-29T07:46:18.290Z,13.90
2023-04-29T07:48:46.186Z,12.80
2023-04-29T07:51:15.178Z,13.60
2023-04-29T07:53:43.332Z,14.00
2023-04-29T07:56:11.235Z,14.30
2023-04-29T07:58:40.244Z,12.97
2023-04-29T08:01:08.706Z,13.87
2023-04-29T08:03:38.858Z,12.73
2023-04-29T08:06:08.781Z,13.80
2023-04-29T08:08:36.725Z,13.93
2023-04-29T08:11:04.558Z,12.97
2023-04-29T08:13:32.200Z,12.83
2023-04-29T08:16:01.495Z,13.10
2023-04-29T08:18:29.305Z,12.60
2023-04-29T08:20:56.962Z,12.13
2023-04-29T08:23:24.852Z,12.50
2023-04-29T08:25:53.510Z,13.30
2023-04-29T08:28:21.204Z,11.67
2023-04-29T08:30:50.079Z,13.47
2023-04-29T08:33:19.101Z,11.00
2023-04-29T08:35:46.741Z,12.63
2023-04-29T08:38:15.142Z,12.80
2023-04-29T08:40:45.641Z,11.93
2023-04-29T08:43:15.166Z,12.70
2023-04-29T08:45:43.592Z,12.37
2023-04-29T08:48:12.509Z,12.30
2023-04-29T08:50:42.696Z,12.80
2023-04-29T08:53:11.762Z,13.27
2023-04-29T08:55:43.491Z,12.40
2023-04-29T08:58:12.415Z,14.93
2023-04-29T09:00:41.351Z,11.77
2023-04-29T09:03:15.918Z,11.97
2023-04-29T09:05:49.755Z,12.30
2023-04-29T09:08:18.072Z,12.27
2023-04-29T09:10:45.807Z,11.87
2023-04-29T09:13:25.417Z,11.80
2023-04-29T09:15:53.394Z,12.17
2023-04-29T09:18:55.087Z,11.60
2023-04-29T09:21:26.079Z,10.40
2023-04-29T09:23:55.778Z,10.27
2023-04-29T09:26:24.322Z,9.80
2023-04-29T09:29:08.477Z,10.37
2023-04-29T09:31:37.310Z,9.80
2023-04-29T09:34:05.143Z,9.50
2023-04-29T09:36:59.023Z,9.47
2023-04-29T09:39:26.889Z,8.80
2023-04-29T09:42:03.044Z,8.53
2023-04-29T09:44:34.517Z,10.07
2023-04-29T09:47:03.881Z,11.10
2023-04-29T09:49:35.616Z,8.53
2023-04-29T09:52:06.584Z,8.83
2023-04-29T09:54:36.301Z,9.00
2023-04-29T09:57:06.133Z,9.50
2023-04-29T09:59:36.003Z,10.40
2023-04-29T10:02:09.287Z,10.70
2023-04-29T10:04:41.469Z,10.87
2023-04-29T10:07:10.748Z,9.53
2023-04-29T10:09:40.882Z,9.87
2023-04-29T10:12:09.143Z,10.07
2023-04-29T10:14:44.451Z,11.33
2023-04-29T10:17:17.187Z,9.80
2023-04-29T10:19:53.546Z,10.80
2023-04-29T10:22:30.472Z,12.47
2023-04-29T10:25:00.165Z,10.03
2023-04-29T10:27:28.930Z,10.67
2023-04-29T10:29:59.498Z,9.30
2023-04-29T10:32:37.008Z,9.10
2023-04-29T10:35:13.689Z,9.77
2023-04-29T10:37:43.197Z,9.50
2023-04-29T10:40:16.090Z,9.50
2023-04-29T10:42:46.273Z,8.20
2023-04-29T10:45:21.150Z,8.90
2023-04-29T10:48:13.963Z,8.57
2023-04-29T10:50:57.648Z,7.30
2023-04-29T10:53:26.851Z,6.67
2023-04-29T10:55:56.034Z,6.00
2023-04-29T10:58:37.437Z,5.10
2023-04-29T11:01:07.816Z,6.10
2023-04-29T11:04:01.655Z,5.50
2023-04-29T11:06:41.507Z,6.10
2023-04-29T11:09:14.251Z,6.27
2023-04-29T11:11:47.295Z,5.43
2023-04-29T11:14:16.429Z,5.97
2023-04-29T11:16:53.614Z,6.17
2023-04-29T11:19:21.737Z,6.63
2023-04-29T11:21:49.438Z,6.53
2023-04-29T11:24:18.371Z,7.50
2023-04-29T11:26:46.402Z,7.47
2023-04-29T11:29:14.570Z,6.73
2023-04-29T11:31:42.297Z,5.70
2023-04-29T11:34:10.398Z,5.73
2023-04-29T11:36:38.032Z,5.83
2023-04-29T11:39:05.837Z,5.60
2023-04-29T11:41:35.785Z,7.00
2023-04-29T11:44:04.939Z,6.57
2023-04-29T11:46:32.959Z,5.43
2023-04-29T11:49:02.001Z,4.97
2023-04-29T11:51:29.883Z,4.20
2023-04-29T11:53:58.888Z,3.80
2023-04-29T11:56:26.585Z,4.20
2023-04-29T11:59:01.318Z,4.30
2023-04-29T12:01:29.181Z,4.80
2023-04-29T12:04:00.994Z,4.23
2023-04-29T12:06:30.050Z,4.77
2023-04-29T12:09:00.559Z,4.87
2023-04-29T12:11:29.015Z,4.77
2023-04-29T12:13:58.426Z,5.90
2023-04-29T12:16:29.343Z,4.83
2023-04-29T12:18:57.445Z,4.60
2023-04-29T12:21:25.300Z,4.83
2023-04-29T12:23:53.116Z,4.90
2023-04-29T12:26:21.963Z,6.80
2023-04-29T12:28:54.921Z,5.23
2023-04-29T12:31:24.285Z,5.60
2023-04-29T12:33:55.311Z,5.80
2023-04-29T12:36:24.337Z,6.20
2023-04-29T12:38:54.533Z,6.00
2023-04-29T12:41:37.617Z,5.90
2023-04-29T12:44:06.619Z,6.03
2023-04-29T12:46:40.520Z,6.30
2023-04-29T12:49:09.026Z,6.10
2023-04-29T12:51:37.596Z,7.00
2023-04-29T12:54:06.934Z,6.50
2023-04-29T12:56:34.694Z,6.50
2023-04-29T12:59:08.619Z,6.47
2023-04-29T13:01:37.941Z,6.17
2023-04-29T13:04:09.091Z,6.00
2023-04-29T13:06:39.413Z,5.40
2023-04-29T13:09:12.186Z,5.50
2023-04-29T13:11:44.588Z,6.47
2023-04-29T13:14:12.158Z,5.83
2023-04-29T13:16:41.302Z,6.40
2023-04-29T13:19:29.529Z,6.60
2023-04-29T13:21:57.792Z,6.60
2023-04-29T13:24:25.359Z,10.37
2023-04-29T13:26:54.207Z,13.13
2023-04-29T13:29:21.937Z,6.00
2023-04-29T13:31:51.517Z,5.87
2023-04-29T13:34:20.394Z,8.90
2023-04-29T13:36:48.075Z,5.30
2023-04-29T13:39:15.679Z,5.47
2023-04-29T13:41:45.878Z,5.53
2023-04-29T13:46:47.492Z,5.97
2023-04-29T13:49:42.288Z,7.23
2023-04-29T13:53:00.820Z,10.03
2023-04-29T13:55:23.215Z,10.03
2023-04-29T13:58:36.094Z,8.60
2023-04-29T14:00:45.269Z,5.07
2023-04-29T14:03:18.595Z,7.00
2023-04-29T14:05:47.828Z,6.53
2023-04-29T14:08:15.493Z,4.47
2023-04-29T14:10:43.456Z,4.93
2023-04-29T14:13:11.087Z,4.57
2023-04-29T14:15:39.085Z,10.30
2023-04-29T14:18:09.453Z,5.10
2023-04-29T14:20:37.073Z,6.73
2023-04-29T14:23:06.056Z,5.63
2023-04-29T14:25:34.007Z,8.27
2023-04-29T14:28:01.891Z,5.37
2023-04-29T14:30:29.557Z,7.43
2023-04-29T14:32:57.635Z,3.80
2023-04-29T14:35:25.428Z,5.03
2023-04-29T14:37:53.031Z,6.50
2023-04-29T14:40:22.195Z,5.20
2023-04-29T14:42:49.755Z,3.97
2023-04-29T14:45:18.090Z,5.80
2023-04-29T14:47:46.717Z,6.30
2023-04-29T14:50:14.526Z,6.53
2023-04-29T14:52:42.136Z,8.60
2023-04-29T14:55:09.996Z,3.80
2023-04-29T14:57:39.158Z,4.60
2023-04-29T15:00:08.909Z,4.63
2023-04-29T15:02:36.596Z,4.73
2023-04-29T15:05:04.889Z,4.50
2023-04-29T15:07:33.024Z,6.23
2023-04-29T15:10:00.874Z,4.97
2023-04-29T15:12:28.541Z,6.53
2023-04-29T15:14:57.550Z,6.43
2023-04-29T15:17:25.460Z,4.33
2023-04-29T15:19:53.107Z,5.83
2023-04-29T15:22:20.703Z,3.47
2023-04-29T15:27:21.407Z,3.73
2023-04-29T15:29:49.022Z,4.10
2023-04-29T15:32:18.167Z,4.07
2023-04-29T15:34:45.833Z,4.10
2023-04-29T15:37:13.492Z,4.33
2023-04-29T15:39:41.315Z,3.67
2023-04-29T15:42:09.440Z,4.40
2023-04-29T15:44:37.034Z,4.27
2023-04-29T15:47:04.927Z,4.00
2023-04-29T15:49:34.104Z,6.20
2023-04-29T15:52:02.026Z,4.20
2023-04-29T15:54:29.658Z,3.30
2023-04-29T15:56:58.134Z,6.63
2023-04-29T15:59:25.745Z,3.93
2023-04-29T16:01:53.411Z,4.10
2023-04-29T16:04:20.998Z,4.07
2023-04-29T16:06:51.090Z,6.20
2023-04-29T16:09:18.912Z,3.67
2023-04-29T16:11:46.971Z,4.37
2023-04-29T16:14:14.538Z,3.80
2023-04-29T16:16:42.759Z,5.43
2023-04-29T16:19:11.860Z,5.87
2023-04-29T16:21:39.827Z,4.70
2023-04-29T16:24:08.858Z,4.67
2023-04-29T16:26:37.340Z,6.10
2023-04-29T16:29:05.190Z,6.60
2023-04-29T16:31:33.041Z,6.37
2023-04-29T16:34:00.699Z,4.43
2023-04-29T16:36:28.325Z,4.33
2023-04-29T16:38:55.982Z,6.00
2023-04-29T16:41:25.997Z,6.67
2023-04-29T16:43:54.027Z,3.67
2023-04-29T16:46:21.893Z,5.73
2023-04-29T16:48:51.309Z,6.90
2023-04-29T16:51:19.177Z,8.20
2023-04-29T16:53:46.779Z,4.83
2023-04-29T16:56:14.438Z,11.80
2023-04-29T16:58:43.473Z,4.43
2023-04-29T17:01:11.243Z,4.87
2023-04-29T17:03:38.878Z,9.37
2023-04-29T17:06:06.683Z,5.57
2023-04-29T17:08:34.799Z,7.20
2023-04-29T17:11:03.694Z,9.37
2023-04-29T17:13:31.318Z,5.03
2023-04-29T17:16:00.583Z,5.60
2023-04-29T17:18:29.458Z,5.23
2023-04-29T17:20:57.168Z,7.63
2023-04-29T17:23:24.855Z,8.83
2023-04-29T17:25:54.554Z,5.40
2023-04-29T17:28:22.383Z,4.97
2023-04-29T17:30:50.266Z,9.47
2023-04-29T17:33:19.955Z,7.37
2023-04-29T17:35:47.547Z,8.20
2023-04-29T17:38:15.165Z,5.57
2023-04-29T17:40:42.820Z,7.83
2023-04-29T17:43:10.571Z,8.83
2023-04-29T17:45:40.889Z,6.43
2023-04-29T17:48:08.655Z,6.63
2023-04-29T17:50:38.811Z,8.50
2023-04-29T17:53:06.809Z,6.73
2023-04-29T17:55:34.459Z,9.53
2023-04-29T17:58:03.754Z,14.00
2023-04-29T18:00:31.481Z,6.30
2023-04-29T18:02:59.287Z,6.63
2023-04-29T18:05:26.950Z,5.27
2023-04-29T18:07:56.049Z,5.40
2023-04-29T18:10:23.752Z,13.60
2023-04-29T18:12:51.372Z,7.87
2023-04-29T18:15:23.554Z,8.40
2023-04-29T18:17:52.132Z,13.73
2023-04-29T18:20:20.587Z,7.20
2023-04-29T18:22:49.662Z,7.03
2023-04-29T18:25:19.132Z,6.80
2023-04-29T18:27:46.755Z,7.73
2023-04-29T18:30:14.677Z,7.40
2023-04-29T18:32:42.431Z,4.70
2023-04-29T18:35:10.760Z,5.97
2023-04-29T18:37:38.489Z,6.03
2023-04-29T18:40:07.700Z,10.87
2023-04-29T18:42:36.724Z,13.27
2023-04-29T18:45:04.937Z,8.93
2023-04-29T18:47:32.696Z,7.60
2023-04-29T18:50:00.353Z,6.80
2023-04-29T18:52:27.976Z,13.00
2023-04-29T18:54:55.602Z,11.27
2023-04-29T18:57:23.247Z,6.80
2023-04-29T18:59:53.389Z,7.50
2023-04-29T19:02:21.239Z,9.73
2023-04-29T19:04:48.953Z,9.10
2023-04-29T19:07:16.568Z,9.00
2023-04-29T19:09:44.184Z,5.40
2023-04-29T19:12:11.777Z,11.33
2023-04-29T19:14:39.907Z,9.10
2023-04-29T19:17:08.939Z,6.80
2023-04-29T19:19:36.731Z,19.17
2023-04-29T19:22:05.255Z,7.57
2023-04-29T19:24:33.856Z,6.97
2023-04-29T19:27:01.781Z,6.67
2023-04-29T19:29:29.401Z,8.20
2023-04-29T19:31:57.025Z,10.90
2023-04-29T19:34:26.320Z,8.23
2023-04-29T19:36:53.974Z,7.80
2023-04-29T19:39:21.697Z,13.00
2023-04-29T19:41:49.346Z,8.23
2023-04-29T19:44:16.998Z,14.20
2023-04-29T19:46:44.619Z,10.10
2023-04-29T19:49:12.859Z,14.93
2023-04-29T19:51:42.420Z,9.83
2023-04-29T19:54:10.227Z,6.57
2023-04-29T19:56:37.857Z,6.93
2023-04-29T19:59:05.721Z,11.60
2023-04-29T20:01:33.983Z,9.20
2023-04-29T20:04:01.702Z,14.53
2023-04-29T20:06:29.885Z,8.07
2023-04-29T20:08:58.988Z,6.80
2023-04-29T20:11:26.939Z,9.90
2023-04-29T20:13:54.550Z,9.90
2023-04-29T20:16:23.311Z,8.73
2023-04-29T20:18:51.154Z,10.57
2023-04-29T20:21:18.778Z,15.17
2023-04-29T20:23:46.407Z,9.70
2023-04-29T20:26:16.493Z,6.13
2023-04-29T20:28:45.405Z,7.57
2023-04-29T20:31:13.010Z,13.17
2023-04-29T20:33:40.946Z,14.20
2023-04-29T20:36:09.053Z,7.00
2023-04-29T20:38:36.847Z,11.27
2023-04-29T20:41:05.794Z,7.90
2023-04-29T20:43:35.085Z,9.70
2023-04-29T20:46:03.273Z,8.30
2023-04-29T20:48:30.932Z,5.80
2023-04-29T20:50:58.557Z,10.00
2023-04-29T20:53:26.293Z,11.47
2023-04-29T20:55:53.870Z,13.10
2023-04-29T20:58:21.680Z,17.57
2023-04-29T21:00:50.983Z,7.47
2023-04-29T21:03:20.865Z,6.60
2023-04-29T21:05:48.582Z,10.63
2023-04-29T21:08:16.186Z,7.07
2023-04-29T21:10:43.830Z,13.40
2023-04-29T21:13:11.825Z,14.70
2023-04-29T21:15:39.509Z,7.00
2023-04-29T21:18:08.530Z,13.53
2023-04-29T21:20:36.368Z,12.27
2023-04-29T21:23:04.076Z,12.03
2023-04-29T21:25:31.777Z,7.40
2023-04-29T21:27:59.492Z,10.17
2023-04-29T21:30:27.162Z,8.30
2023-04-29T21:32:55.577Z,6.70
2023-04-29T21:35:24.836Z,6.13
2023-04-29T21:37:52.557Z,17.20
2023-04-29T21:40:20.570Z,6.40
2023-04-29T21:42:48.766Z,8.13
2023-04-29T21:45:17.349Z,6.60
2023-04-29T21:47:45.481Z,7.60
2023-04-29T21:50:14.331Z,8.80
2023-04-29T21:52:43.530Z,11.63
2023-04-29T21:55:11.423Z,7.47
2023-04-29T22:00:20.582Z,6.30
2023-04-29T22:02:48.595Z,9.37
2023-04-29T22:05:16.456Z,13.20
2023-04-29T22:07:46.067Z,9.47
2023-04-29T22:10:13.833Z,7.37
2023-04-29T22:12:41.525Z,11.53
2023-04-29T22:15:20.677Z,7.33
2023-04-29T22:17:55.485Z,9.43
2023-04-29T22:20:23.257Z,6.63
2023-04-29T22:22:52.426Z,13.20
2023-04-29T22:25:21.876Z,11.53
2023-04-29T22:27:49.915Z,14.07
2023-04-29T22:30:18.001Z,7.47
2023-04-29T22:32:45.833Z,6.80
2023-04-29T22:35:13.549Z,7.27
2023-04-29T22:37:41.349Z,5.90
2023-04-29T22:40:12.731Z,13.53
2023-04-29T22:42:41.874Z,9.53
2023-04-29T22:45:11.703Z,6.70
2023-04-29T22:47:39.758Z,12.33
2023-04-29T22:50:08.641Z,10.03
2023-04-29T22:52:36.258Z,11.97
2023-04-29T22:55:04.166Z,11.27
2023-04-29T22:57:33.214Z,6.30
2023-04-29T23:00:01.079Z,7.77
2023-04-29T23:02:29.306Z,14.47
2023-04-29T23:04:57.697Z,8.27
2023-04-29T23:07:26.614Z,15.07
2023-04-29T23:09:54.483Z,11.97
2023-04-29T23:12:22.336Z,12.03
2023-04-29T23:14:51.658Z,7.00
2023-04-29T23:17:19.412Z,9.93
2023-04-29T23:19:47.027Z,13.10
2023-04-29T23:22:14.666Z,14.33
2023-04-29T23:24:42.316Z,7.23
2023-04-29T23:27:09.940Z,9.93
2023-04-29T23:29:38.849Z,6.63
2023-04-29T23:32:07.800Z,9.03
2023-04-29T23:34:35.594Z,10.33
2023-04-29T23:37:03.292Z,7.00
2023-04-29T23:39:30.980Z,8.30
2023-04-29T23:41:58.637Z,8.80
2023-04-29T23:44:26.190Z,9.83
2023-04-29T23:46:55.108Z,10.93
2023-04-29T23:49:24.129Z,14.03
2023-04-29T23:51:51.789Z,11.70
2023-04-29T23:54:19.386Z,15.03
2023-04-29T23:56:47.304Z,8.00
2023-04-29T23:59:15.240Z,8.30
